Boothville, Louisiana
Current Conditions -  °F | °C
As of 7:15 AM on Thursday 30 Oct 2014 (Local Time) from K1B7 Reporting Station
Broken Clouds Broken Clouds  
Wind Chill: 68°   Ceiling: 6500
Heat Index: 68°   Visibility: 10mi
Dew Point: 61°   Wind: 12mph
Humidity: 78%   Direction: 60°ENE
Pressure: 30.05"   Gusts: NA
Location:  29.34°N, 89.42°W
Report Text: K1B7 301215Z 06010KT 10SM SCT033 BKN065 20/16 A3005
Loading
Personal Weather Stations






























Interactive Weather Map
Tropical Storm Tracking
New forecast layout! Learn more

10-Day Weather Forecast

Advertisements
Track Severe Weather on mobile